Weather History for Boonville, MO

Change the Weather History Date:

Friday, December 6, 2013

  Actual Average Record
Temperature  
Mean Temperature 16 °F -  
Max Temperature 21 °F 46 °F 69 °F (1956)
Min Temperature 12 °F 27 °F -1 °F (1950)
Degree Days  
Heating Degree Days 48    
Moisture  
Dew Point 3 °F    
Average Humidity 53    
Maximum Humidity 64    
Minimum Humidity 39    
Precipitation  
Precipitation 0.00 in - - ()
Sea Level Pressure  
Sea Level Pressure 30.45 in    
Wind  
Wind Speed 10 mph (NNW)    
Max Wind Speed 14 mph    
Max Gust Speed 16 mph    
Visibility 10 miles    
Events      
Averages and records for this station are not official NWS values.
T = Trace of Precipitation, MM = Missing Value Source: NWS Daily Summary

Daily Weather History Graph

Daily Weather History Graph

Search for Another Location

Airport:

Trip Planner

Search our weather history database for the weather conditions in past years. The results will help you decide how hot, cold, wet, or windy it might be!

Date:

Astronomy

Dec. 06, 2013 Rise Set
Actual Time 7:15 AM CST 4:48 PM CST
Civil Twilight 6:45 AM CST 5:18 PM CST
Nautical Twilight 6:12 AM CST 5:51 PM CST
Astronomical Twilight 5:40 AM CST 6:23 PM CST
Moon 10:22 AM CST (12/6) 9:19 PM CST (12/6)
Length of Visible Light 10h 32m
Length of Day
9h 32m
Waxing Crescent, 19% of the Moon is Illuminated
Dec 6
Waxing Crescent
Dec 9
First Quarter
Dec 17
Full
Dec 25
Last Quarter
Jan 1
New

Hourly Weather History & Observations

Time (CST) Temp. Windchill Dew Point Humidity Pressure Visibility Wind Dir Wind Speed Gust Speed Precip Events Conditions
12:15 AM 21.7 °F 10.8 °F 8.6 °F 57% 30.33 in 10.0 mi NNW 10.4 mph - N/A   Overcast
12:35 AM 21.4 °F 11.1 °F 8.6 °F 58% 30.34 in 10.0 mi NW 9.2 mph - N/A   Overcast
12:55 AM 21.2 °F 11.7 °F 8.4 °F 58% 30.33 in 10.0 mi North 8.1 mph - N/A   Overcast
1:15 AM 21.2 °F 10.1 °F 8.4 °F 58% 30.34 in 10.0 mi North 10.4 mph - N/A   Overcast
1:35 AM 20.8 °F 10.4 °F 8.2 °F 58% 30.34 in 10.0 mi NNW 9.2 mph - N/A   Overcast
1:55 AM 20.5 °F 9.2 °F 8.2 °F 59% 30.36 in 10.0 mi NNW 10.4 mph - N/A   Overcast
2:15 AM 20.5 °F 8.0 °F 8.1 °F 59% 30.35 in 10.0 mi NNW 12.7 mph 16.1 mph N/A   Overcast
2:35 AM 20.3 °F 9.8 °F 7.7 °F 58% 30.35 in 10.0 mi North 9.2 mph - N/A   Overcast
2:55 AM 20.1 °F 8.1 °F 7.9 °F 59% 30.36 in 10.0 mi North 11.5 mph - N/A   Overcast
3:15 AM 19.9 °F 9.3 °F 7.9 °F 60% 30.36 in 10.0 mi North 9.2 mph - N/A   Overcast
3:35 AM 19.6 °F 8.1 °F 8.4 °F 62% 30.35 in 10.0 mi North 10.4 mph - N/A   Overcast
3:55 AM 19.4 °F 7.9 °F 8.8 °F 63% 30.35 in 10.0 mi NNW 10.4 mph - N/A   Overcast
4:15 AM 19.0 °F 8.2 °F 8.6 °F 64% 30.36 in 10.0 mi NNW 9.2 mph 16.1 mph N/A   Overcast
4:35 AM 18.9 °F 8.8 °F 8.1 °F 63% 30.36 in 10.0 mi North 8.1 mph - N/A   Overcast
4:55 AM 19.0 °F 7.5 °F 7.7 °F 61% 30.36 in 10.0 mi North 10.4 mph - N/A   Overcast
5:15 AM 19.0 °F 6.8 °F 7.5 °F 61% 30.36 in 10.0 mi NNW 11.5 mph - N/A   Overcast
5:35 AM 18.9 °F 6.5 °F 7.3 °F 61% 30.35 in 10.0 mi North 11.5 mph - N/A   Overcast
5:55 AM 18.7 °F 7.8 °F 7.2 °F 61% 30.36 in 10.0 mi NNW 9.2 mph - N/A   Scattered Clouds
6:15 AM 18.5 °F 7.5 °F 6.8 °F 60% 30.38 in 10.0 mi North 9.2 mph - N/A   Mostly Cloudy
6:35 AM 18.5 °F 6.1 °F 6.6 °F 60% 30.37 in 10.0 mi NNW 11.5 mph - N/A   Overcast
6:55 AM 18.1 °F 6.3 °F 6.1 °F 59% 30.37 in 10.0 mi North 10.4 mph 16.1 mph N/A   Overcast
7:15 AM 18.0 °F 4.8 °F 5.7 °F 59% 30.40 in 10.0 mi NNW 12.7 mph 16.1 mph N/A   Overcast
7:35 AM 17.6 °F 5.7 °F 5.4 °F 59% 30.40 in 10.0 mi NNW 10.4 mph - N/A   Overcast
7:55 AM 17.6 °F 5.7 °F 5.2 °F 58% 30.43 in 10.0 mi NNW 10.4 mph 16.1 mph N/A   Overcast
8:15 AM 17.4 °F 5.4 °F 4.8 °F 58% 30.43 in 10.0 mi NNW 10.4 mph - N/A   Overcast
8:35 AM 17.4 °F 4.7 °F 4.8 °F 58% 30.44 in 10.0 mi NNW 11.5 mph - N/A   Overcast
8:55 AM 17.2 °F 6.0 °F 4.5 °F 57% 30.41 in 10.0 mi North 9.2 mph - N/A   Overcast
9:15 AM 17.2 °F 6.8 °F 4.5 °F 57% 30.44 in 10.0 mi North 8.1 mph - N/A   Overcast
9:35 AM 17.1 °F 5.0 °F 4.3 °F 57% 30.43 in 10.0 mi North 10.4 mph 16.1 mph N/A   Overcast
9:55 AM 17.1 °F 5.0 °F 3.9 °F 56% 30.46 in 10.0 mi North 10.4 mph - N/A   Overcast
10:15 AM 16.9 °F 4.1 °F 3.0 °F 55% 30.46 in 10.0 mi NNW 11.5 mph - N/A   Overcast
10:35 AM 17.1 °F 3.6 °F 2.5 °F 53% 30.44 in 10.0 mi NNW 12.7 mph - N/A   Overcast
10:55 AM 17.1 °F 5.8 °F 1.9 °F 52% 30.46 in 10.0 mi NNW 9.2 mph - N/A   Overcast
11:15 AM 17.1 °F 6.6 °F 2.1 °F 52% 30.44 in 10.0 mi NNW 8.1 mph - N/A   Overcast
11:35 AM 17.2 °F 6.0 °F 1.9 °F 51% 30.46 in 10.0 mi North 9.2 mph - N/A   Overcast
11:55 AM 17.2 °F 8.9 °F 1.6 °F 50% 30.48 in 10.0 mi North 5.8 mph - N/A   Overcast
12:15 PM 17.4 °F 7.1 °F 1.6 °F 50% 30.45 in 10.0 mi NNW 8.1 mph - N/A   Overcast
12:35 PM 17.8 °F 7.5 °F 2.1 °F 50% 30.45 in 10.0 mi North 8.1 mph - N/A   Overcast
12:55 PM 17.8 °F 5.9 °F 1.6 °F 49% 30.46 in 10.0 mi North 10.4 mph - N/A   Overcast
1:15 PM 18.0 °F 6.9 °F 1.0 °F 48% 30.46 in 10.0 mi North 9.2 mph - N/A   Overcast
1:35 PM 18.5 °F 6.8 °F 0.3 °F 45% 30.43 in 10.0 mi NNW 10.4 mph - N/A   Overcast
1:55 PM 19.2 °F 5.8 °F -0.0 °F 43% 30.44 in 10.0 mi NW 13.8 mph - N/A   Overcast
2:15 PM 19.4 °F 7.2 °F 0.1 °F 43% 30.43 in 10.0 mi NNW 11.5 mph - N/A   Overcast
2:35 PM 19.6 °F 8.9 °F -0.4 °F 42% 30.44 in 10.0 mi NW 9.2 mph - N/A   Overcast
2:55 PM 20.1 °F 8.8 °F 0.1 °F 42% 30.45 in 10.0 mi North 10.4 mph - N/A   Overcast
3:15 PM 19.9 °F 7.3 °F -0.2 °F 41% 30.45 in 10.0 mi NW 12.7 mph - N/A   Overcast
3:35 PM 19.9 °F 9.3 °F -0.6 °F 41% 30.46 in 10.0 mi NNW 9.2 mph - N/A   Overcast
3:55 PM 19.9 °F 9.3 °F -1.1 °F 40% 30.47 in 10.0 mi North 9.2 mph - N/A   Overcast
4:15 PM 19.9 °F 10.1 °F -1.3 °F 39% 30.48 in 10.0 mi North 8.1 mph - N/A   Overcast
4:35 PM 19.9 °F 10.1 °F -0.8 °F 40% 30.48 in 10.0 mi North 8.1 mph - N/A   Overcast
5:15 PM 19.6 °F 10.6 °F -0.8 °F 41% 30.49 in 10.0 mi NNW 6.9 mph - N/A   Overcast
5:55 PM 18.9 °F 9.8 °F -0.8 °F 42% 30.51 in 10.0 mi NNW 6.9 mph - N/A   Overcast
6:15 PM 18.5 °F 8.4 °F -0.6 °F 43% 30.52 in 10.0 mi NNW 8.1 mph - N/A   Overcast
6:35 PM 17.8 °F 9.6 °F 0.1 °F 46% 30.53 in 10.0 mi NNW 5.8 mph - N/A   Overcast
6:55 PM 17.1 °F 7.6 °F 0.3 °F 48% 30.53 in 10.0 mi NNW 6.9 mph - N/A   Overcast
7:15 PM 16.7 °F 8.3 °F 0.3 °F 49% 30.54 in 10.0 mi NNW 5.8 mph - N/A   Mostly Cloudy
7:35 PM 16.5 °F 6.0 °F 0.3 °F 49% 30.55 in 10.0 mi NNW 8.1 mph - N/A   Scattered Clouds
7:55 PM 16.5 °F 6.9 °F -0.0 °F 48% 30.55 in 10.0 mi NNW 6.9 mph - N/A   Clear
8:15 PM 16.0 °F 6.3 °F 0.3 °F 50% 30.56 in 10.0 mi NNW 6.9 mph - N/A   Clear
8:35 PM 15.8 °F 6.1 °F 0.1 °F 50% 30.57 in 10.0 mi NNW 6.9 mph - N/A   Clear
8:55 PM 15.6 °F 4.9 °F 0.3 °F 51% 30.58 in 10.0 mi NNW 8.1 mph - N/A   Clear
9:15 PM 15.3 °F 5.4 °F 0.1 °F 51% 30.58 in 10.0 mi NNW 6.9 mph - N/A   Clear
9:35 PM 14.9 °F 4.0 °F -0.0 °F 52% 30.59 in 10.0 mi North 8.1 mph - N/A   Clear
9:55 PM 14.7 °F 4.8 °F -0.2 °F 52% 30.60 in 10.0 mi NNW 6.9 mph - N/A   Clear
10:15 PM 14.4 °F 4.3 °F -0.0 °F 53% 30.61 in 10.0 mi NNW 6.9 mph - N/A   Clear
10:35 PM 14.0 °F 2.9 °F -0.0 °F 54% 30.61 in 10.0 mi NNW 8.1 mph - N/A   Clear
10:55 PM 13.8 °F 4.9 °F -0.0 °F 54% 30.62 in 10.0 mi NNW 5.8 mph - N/A   Clear
11:15 PM 13.1 °F 2.8 °F 0.3 °F 57% 30.62 in 10.0 mi NNW 6.9 mph - N/A   Clear
11:35 PM 12.9 °F 2.6 °F 0.5 °F 58% 30.63 in 10.0 mi NNW 6.9 mph - N/A   Clear
11:55 PM 12.4 °F 3.1 °F 0.5 °F 59% 30.63 in 10.0 mi North 5.8 mph - N/A   Clear